Ames, Texas
Current Conditions -  °F | °C
As of 4:35 AM on Saturday 01 Nov 2014 (Local Time) from K6R3 Reporting Station
Clear Clear  
Wind Chill: 47°   Ceiling: Unl
Heat Index: 47°   Visibility: 10mi
Dew Point: 45°   Wind: 0mph
Humidity: 91%   Direction: NA
Pressure: 30.33"   Gusts: NA
Location:  30.0821°N, 94.7401°W
Report Text: K6R3 010935Z AUTO 00000KT 10SM CLR 08/07 A3033 RMK AO2 T00840070
Loading
Personal Weather Stations






























Interactive Weather Map
Tropical Storm Tracking
New forecast layout! Learn more

10-Day Weather Forecast

Advertisements
Track Severe Weather on mobile